sensor_id;sensor_type;location;lat;lon;timestamp;pressure;altitude;pressure_sealevel;temperature;humidity
57847;BME280;43675;50.030;21.952;2023-01-08T00:00:44;99034.08;;;1.29;79.42
57847;BME280;43675;50.030;21.952;2023-01-08T00:03:30;99031.67;;;1.06;79.88
57847;BME280;43675;50.030;21.952;2023-01-08T00:06:00;99028.46;;;0.90;80.26
57847;BME280;43675;50.030;21.952;2023-01-08T00:08:27;99026.55;;;0.79;80.63
57847;BME280;43675;50.030;21.952;2023-01-08T00:10:54;99021.73;;;0.72;80.98
57847;BME280;43675;50.030;21.952;2023-01-08T00:13:21;99018.94;;;0.68;81.13
57847;BME280;43675;50.030;21.952;2023-01-08T00:15:48;99015.31;;;0.66;81.23
57847;BME280;43675;50.030;21.952;2023-01-08T00:18:14;99015.48;;;0.64;81.37
57847;BME280;43675;50.030;21.952;2023-01-08T00:20:44;99013.57;;;0.64;81.44
57847;BME280;43675;50.030;21.952;2023-01-08T00:23:12;99009.45;;;0.62;81.50
57847;BME280;43675;50.030;21.952;2023-01-08T00:25:39;99010.57;;;0.62;81.64
57847;BME280;43675;50.030;21.952;2023-01-08T00:28:06;99007.01;;;0.60;81.67
57847;BME280;43675;50.030;21.952;2023-01-08T00:30:33;99009.19;;;0.60;81.65
57847;BME280;43675;50.030;21.952;2023-01-08T00:32:59;99009.51;;;0.60;81.77
57847;BME280;43675;50.030;21.952;2023-01-08T00:35:26;99007.73;;;0.64;81.94
57847;BME280;43675;50.030;21.952;2023-01-08T00:37:52;99007.45;;;0.68;82.01
57847;BME280;43675;50.030;21.952;2023-01-08T00:40:19;99009.31;;;0.73;82.20
57847;BME280;43675;50.030;21.952;2023-01-08T00:42:46;99010.68;;;0.77;82.26
57847;BME280;43675;50.030;21.952;2023-01-08T00:45:13;99006.91;;;0.81;82.17
57847;BME280;43675;50.030;21.952;2023-01-08T00:47:40;99007.65;;;0.85;82.18
57847;BME280;43675;50.030;21.952;2023-01-08T00:50:07;99003.21;;;0.89;82.24
57847;BME280;43675;50.030;21.952;2023-01-08T00:52:33;98999.39;;;0.92;82.18
57847;BME280;43675;50.030;21.952;2023-01-08T00:55:00;98998.86;;;0.96;82.22
57847;BME280;43675;50.030;21.952;2023-01-08T00:57:33;98997.55;;;1.01;82.37
57847;BME280;43675;50.030;21.952;2023-01-08T01:00:00;98994.81;;;1.07;82.26
57847;BME280;43675;50.030;21.952;2023-01-08T01:02:27;98998.45;;;1.13;82.38
57847;BME280;43675;50.030;21.952;2023-01-08T01:04:54;98992.77;;;1.17;82.36
57847;BME280;43675;50.030;21.952;2023-01-08T01:07:20;98989.73;;;1.21;82.34
57847;BME280;43675;50.030;21.952;2023-01-08T01:09:47;98985.02;;;1.24;82.39
57847;BME280;43675;50.030;21.952;2023-01-08T01:12:13;98980.03;;;1.26;82.18
57847;BME280;43675;50.030;21.952;2023-01-08T01:14:40;98983.09;;;1.29;82.31
57847;BME280;43675;50.030;21.952;2023-01-08T01:17:08;98977.48;;;1.31;82.24
57847;BME280;43675;50.030;21.952;2023-01-08T01:19:35;98976.73;;;1.31;82.30
57847;BME280;43675;50.030;21.952;2023-01-08T01:22:01;98973.41;;;1.33;82.25
57847;BME280;43675;50.030;21.952;2023-01-08T01:24:28;98971.45;;;1.35;82.21
57847;BME280;43675;50.030;21.952;2023-01-08T01:26:55;98973.02;;;1.38;82.38
57847;BME280;43675;50.030;21.952;2023-01-08T01:29:23;98970.71;;;1.40;82.27
57847;BME280;43675;50.030;21.952;2023-01-08T01:31:50;98965.73;;;1.43;82.34
57847;BME280;43675;50.030;21.952;2023-01-08T01:34:16;98966.42;;;1.45;82.38
57847;BME280;43675;50.030;21.952;2023-01-08T01:36:43;98962.46;;;1.46;82.34
57847;BME280;43675;50.030;21.952;2023-01-08T01:39:09;98960.05;;;1.45;82.36
57847;BME280;43675;50.030;21.952;2023-01-08T01:41:41;98952.70;;;1.44;82.24
57847;BME280;43675;50.030;21.952;2023-01-08T01:44:40;98950.02;;;1.45;82.23
57847;BME280;43675;50.030;21.952;2023-01-08T01:47:33;98947.20;;;1.45;82.20
57847;BME280;43675;50.030;21.952;2023-01-08T01:53:02;98941.63;;;1.48;82.24
57847;BME280;43675;50.030;21.952;2023-01-08T01:55:31;98937.53;;;1.52;82.34
57847;BME280;43675;50.030;21.952;2023-01-08T01:58:12;98941.04;;;1.55;82.10
57847;BME280;43675;50.030;21.952;2023-01-08T02:00:40;98940.84;;;1.56;82.22
57847;BME280;43675;50.030;21.952;2023-01-08T02:03:09;98942.16;;;1.57;82.30
57847;BME280;43675;50.030;21.952;2023-01-08T02:05:56;98933.88;;;1.58;82.25
57847;BME280;43675;50.030;21.952;2023-01-08T02:11:34;98929.02;;;1.62;82.32
57847;BME280;43675;50.030;21.952;2023-01-08T02:16:56;98923.74;;;1.59;81.94
57847;BME280;43675;50.030;21.952;2023-01-08T02:19:42;98921.96;;;1.52;81.80
57847;BME280;43675;50.030;21.952;2023-01-08T02:22:29;98917.42;;;1.44;81.86
57847;BME280;43675;50.030;21.952;2023-01-08T02:27:32;98910.69;;;1.31;81.75
57847;BME280;43675;50.030;21.952;2023-01-08T02:30:02;98907.55;;;1.21;81.71
57847;BME280;43675;50.030;21.952;2023-01-08T02:32:37;98906.60;;;1.13;81.60
57847;BME280;43675;50.030;21.952;2023-01-08T02:35:05;98903.92;;;1.05;81.59
57847;BME280;43675;50.030;21.952;2023-01-08T02:37:32;98897.54;;;0.96;81.64
57847;BME280;43675;50.030;21.952;2023-01-08T02:42:46;98903.09;;;0.77;81.62
57847;BME280;43675;50.030;21.952;2023-01-08T02:45:45;98897.66;;;0.69;81.89
57847;BME280;43675;50.030;21.952;2023-01-08T02:53:50;98898.05;;;0.58;81.78
57847;BME280;43675;50.030;21.952;2023-01-08T02:56:23;98897.69;;;0.58;82.11
57847;BME280;43675;50.030;21.952;2023-01-08T02:58:53;98899.95;;;0.64;82.43
57847;BME280;43675;50.030;21.952;2023-01-08T03:01:22;98899.52;;;0.72;82.65
57847;BME280;43675;50.030;21.952;2023-01-08T03:03:53;98901.52;;;0.84;82.85
57847;BME280;43675;50.030;21.952;2023-01-08T03:06:22;98901.95;;;0.96;83.04
57847;BME280;43675;50.030;21.952;2023-01-08T03:08:51;98897.92;;;1.10;83.06
57847;BME280;43675;50.030;21.952;2023-01-08T03:11:21;98894.41;;;1.22;83.14
57847;BME280;43675;50.030;21.952;2023-01-08T03:14:17;98891.06;;;1.33;83.20
57847;BME280;43675;50.030;21.952;2023-01-08T03:16:53;98886.25;;;1.44;83.19
57847;BME280;43675;50.030;21.952;2023-01-08T03:19:27;98876.59;;;1.55;83.00
57847;BME280;43675;50.030;21.952;2023-01-08T03:21:57;98871.13;;;1.63;82.91
57847;BME280;43675;50.030;21.952;2023-01-08T03:24:32;98871.31;;;1.70;82.83
57847;BME280;43675;50.030;21.952;2023-01-08T03:27:01;98866.10;;;1.76;83.00
57847;BME280;43675;50.030;21.952;2023-01-08T03:29:30;98864.02;;;1.83;82.79
57847;BME280;43675;50.030;21.952;2023-01-08T03:32:04;98860.16;;;1.86;82.71
57847;BME280;43675;50.030;21.952;2023-01-08T03:34:37;98859.42;;;1.86;82.57
57847;BME280;43675;50.030;21.952;2023-01-08T03:37:06;98860.20;;;1.87;82.47
57847;BME280;43675;50.030;21.952;2023-01-08T03:39:46;98858.59;;;1.87;82.40
57847;BME280;43675;50.030;21.952;2023-01-08T03:42:16;98859.70;;;1.85;82.20
57847;BME280;43675;50.030;21.952;2023-01-08T03:44:45;98858.21;;;1.83;82.28
57847;BME280;43675;50.030;21.952;2023-01-08T03:47:13;98854.27;;;1.80;81.99
57847;BME280;43675;50.030;21.952;2023-01-08T03:49:42;98849.96;;;1.79;82.21
57847;BME280;43675;50.030;21.952;2023-01-08T03:52:22;98851.00;;;1.77;82.17
57847;BME280;43675;50.030;21.952;2023-01-08T03:54:50;98844.41;;;1.71;81.94
57847;BME280;43675;50.030;21.952;2023-01-08T03:57:16;98841.92;;;1.64;81.80
57847;BME280;43675;50.030;21.952;2023-01-08T03:59:43;98843.35;;;1.54;81.71
57847;BME280;43675;50.030;21.952;2023-01-08T04:02:10;98841.96;;;1.43;81.73
57847;BME280;43675;50.030;21.952;2023-01-08T04:04:37;98839.77;;;1.33;81.86
57847;BME280;43675;50.030;21.952;2023-01-08T04:07:03;98835.94;;;1.26;81.91
57847;BME280;43675;50.030;21.952;2023-01-08T04:09:30;98840.17;;;1.22;81.96
57847;BME280;43675;50.030;21.952;2023-01-08T04:11:57;98839.70;;;1.21;82.38
57847;BME280;43675;50.030;21.952;2023-01-08T04:14:23;98832.42;;;1.24;82.38
57847;BME280;43675;50.030;21.952;2023-01-08T04:16:50;98831.09;;;1.26;82.34
57847;BME280;43675;50.030;21.952;2023-01-08T04:19:17;98825.27;;;1.30;82.61
57847;BME280;43675;50.030;21.952;2023-01-08T04:21:43;98827.31;;;1.34;82.49
57847;BME280;43675;50.030;21.952;2023-01-08T04:24:11;98824.70;;;1.36;82.32
57847;BME280;43675;50.030;21.952;2023-01-08T04:26:38;98821.53;;;1.37;82.33
57847;BME280;43675;50.030;21.952;2023-01-08T04:29:04;98816.62;;;1.35;82.21
57847;BME280;43675;50.030;21.952;2023-01-08T04:31:31;98813.40;;;1.29;82.07
57847;BME280;43675;50.030;21.952;2023-01-08T04:33:58;98815.73;;;1.21;81.96
57847;BME280;43675;50.030;21.952;2023-01-08T04:36:25;98820.30;;;1.18;82.15
57847;BME280;43675;50.030;21.952;2023-01-08T04:38:51;98822.96;;;1.20;82.32
57847;BME280;43675;50.030;21.952;2023-01-08T04:41:18;98823.11;;;1.25;82.44
57847;BME280;43675;50.030;21.952;2023-01-08T04:43:44;98818.45;;;1.31;82.32
57847;BME280;43675;50.030;21.952;2023-01-08T04:46:11;98816.05;;;1.39;82.58
57847;BME280;43675;50.030;21.952;2023-01-08T04:48:37;98808.98;;;1.47;82.60
57847;BME280;43675;50.030;21.952;2023-01-08T04:51:04;98810.58;;;1.53;82.71
57847;BME280;43675;50.030;21.952;2023-01-08T04:53:34;98809.34;;;1.60;82.58
57847;BME280;43675;50.030;21.952;2023-01-08T04:56:06;98814.89;;;1.68;82.54
57847;BME280;43675;50.030;21.952;2023-01-08T04:58:34;98817.14;;;1.77;82.52
57847;BME280;43675;50.030;21.952;2023-01-08T05:01:12;98813.61;;;1.84;82.52
57847;BME280;43675;50.030;21.952;2023-01-08T05:03:39;98815.14;;;1.90;82.39
57847;BME280;43675;50.030;21.952;2023-01-08T05:06:06;98811.33;;;1.96;82.48
57847;BME280;43675;50.030;21.952;2023-01-08T05:08:33;98818.51;;;2.02;82.42
57847;BME280;43675;50.030;21.952;2023-01-08T05:11:00;98818.37;;;2.06;82.24
57847;BME280;43675;50.030;21.952;2023-01-08T05:13:27;98813.20;;;2.10;82.37
57847;BME280;43675;50.030;21.952;2023-01-08T05:15:57;98809.41;;;2.14;82.41
57847;BME280;43675;50.030;21.952;2023-01-08T05:18:25;98807.64;;;2.18;82.12
57847;BME280;43675;50.030;21.952;2023-01-08T05:20:51;98807.65;;;2.21;82.14
57847;BME280;43675;50.030;21.952;2023-01-08T05:23:18;98805.95;;;2.24;82.23
57847;BME280;43675;50.030;21.952;2023-01-08T05:25:45;98807.45;;;2.26;82.03
57847;BME280;43675;50.030;21.952;2023-01-08T05:28:11;98809.51;;;2.28;81.98
57847;BME280;43675;50.030;21.952;2023-01-08T05:30:38;98805.64;;;2.30;81.98
57847;BME280;43675;50.030;21.952;2023-01-08T05:33:04;98805.98;;;2.32;81.75
57847;BME280;43675;50.030;21.952;2023-01-08T05:35:31;98802.84;;;2.33;82.09
57847;BME280;43675;50.030;21.952;2023-01-08T05:37:58;98802.42;;;2.35;81.75
57847;BME280;43675;50.030;21.952;2023-01-08T05:40:25;98802.46;;;2.36;81.86
57847;BME280;43675;50.030;21.952;2023-01-08T05:42:52;98809.72;;;2.38;82.10
57847;BME280;43675;50.030;21.952;2023-01-08T05:45:18;98803.99;;;2.39;81.96
57847;BME280;43675;50.030;21.952;2023-01-08T05:47:45;98806.79;;;2.41;81.91
57847;BME280;43675;50.030;21.952;2023-01-08T05:50:12;98805.33;;;2.42;81.87
57847;BME280;43675;50.030;21.952;2023-01-08T05:52:39;98801.86;;;2.43;81.86
57847;BME280;43675;50.030;21.952;2023-01-08T05:55:05;98800.90;;;2.44;81.63
57847;BME280;43675;50.030;21.952;2023-01-08T05:57:32;98800.15;;;2.46;81.81
57847;BME280;43675;50.030;21.952;2023-01-08T05:59:59;98792.85;;;2.48;81.86
57847;BME280;43675;50.030;21.952;2023-01-08T06:02:25;98785.78;;;2.49;81.69
57847;BME280;43675;50.030;21.952;2023-01-08T06:04:52;98783.80;;;2.51;81.70
57847;BME280;43675;50.030;21.952;2023-01-08T06:07:18;98779.02;;;2.53;81.60
57847;BME280;43675;50.030;21.952;2023-01-08T06:09:45;98776.17;;;2.55;81.48
57847;BME280;43675;50.030;21.952;2023-01-08T06:12:11;98778.72;;;2.56;81.64
57847;BME280;43675;50.030;21.952;2023-01-08T06:14:38;98782.42;;;2.56;81.61
57847;BME280;43675;50.030;21.952;2023-01-08T06:17:04;98778.76;;;2.56;81.55
57847;BME280;43675;50.030;21.952;2023-01-08T06:19:31;98782.77;;;2.56;81.50
57847;BME280;43675;50.030;21.952;2023-01-08T06:21:58;98786.61;;;2.58;81.52
57847;BME280;43675;50.030;21.952;2023-01-08T06:24:24;98787.65;;;2.58;81.28
57847;BME280;43675;50.030;21.952;2023-01-08T06:26:51;98784.33;;;2.60;81.52
57847;BME280;43675;50.030;21.952;2023-01-08T06:29:17;98783.55;;;2.62;81.51
57847;BME280;43675;50.030;21.952;2023-01-08T06:31:44;98785.89;;;2.63;81.24
57847;BME280;43675;50.030;21.952;2023-01-08T06:34:10;98786.60;;;2.65;81.40
57847;BME280;43675;50.030;21.952;2023-01-08T06:36:37;98791.50;;;2.65;81.16
57847;BME280;43675;50.030;21.952;2023-01-08T06:39:05;98786.70;;;2.66;81.15
57847;BME280;43675;50.030;21.952;2023-01-08T06:41:32;98788.45;;;2.66;81.14
57847;BME280;43675;50.030;21.952;2023-01-08T06:43:59;98787.79;;;2.67;81.19
57847;BME280;43675;50.030;21.952;2023-01-08T06:46:25;98787.82;;;2.67;81.26
57847;BME280;43675;50.030;21.952;2023-01-08T06:48:52;98787.59;;;2.66;80.96
57847;BME280;43675;50.030;21.952;2023-01-08T06:51:18;98790.41;;;2.66;81.12
57847;BME280;43675;50.030;21.952;2023-01-08T06:53:48;98793.45;;;2.65;80.91
57847;BME280;43675;50.030;21.952;2023-01-08T06:56:15;98789.94;;;2.65;81.04
57847;BME280;43675;50.030;21.952;2023-01-08T06:58:41;98792.66;;;2.66;80.84
57847;BME280;43675;50.030;21.952;2023-01-08T07:01:12;98792.16;;;2.67;81.03
57847;BME280;43675;50.030;21.952;2023-01-08T07:03:40;98791.22;;;2.70;80.79
57847;BME280;43675;50.030;21.952;2023-01-08T07:06:08;98789.98;;;2.73;80.93
57847;BME280;43675;50.030;21.952;2023-01-08T07:08:38;98792.36;;;2.74;80.79
57847;BME280;43675;50.030;21.952;2023-01-08T07:11:04;98789.85;;;2.78;80.75
57847;BME280;43675;50.030;21.952;2023-01-08T07:13:31;98794.79;;;2.81;80.88
57847;BME280;43675;50.030;21.952;2023-01-08T07:15:57;98797.75;;;2.84;81.10
57847;BME280;43675;50.030;21.952;2023-01-08T07:18:24;98794.98;;;2.91;81.03
57847;BME280;43675;50.030;21.952;2023-01-08T07:20:50;98795.11;;;2.96;80.58
57847;BME280;43675;50.030;21.952;2023-01-08T07:23:17;98794.57;;;3.01;80.67
57847;BME280;43675;50.030;21.952;2023-01-08T07:25:44;98794.27;;;3.06;80.64
57847;BME280;43675;50.030;21.952;2023-01-08T07:28:11;98791.91;;;3.09;80.41
57847;BME280;43675;50.030;21.952;2023-01-08T07:30:37;98790.75;;;3.13;80.55
57847;BME280;43675;50.030;21.952;2023-01-08T07:33:04;98794.70;;;3.16;80.30
57847;BME280;43675;50.030;21.952;2023-01-08T07:35:30;98787.02;;;3.17;80.33
57847;BME280;43675;50.030;21.952;2023-01-08T07:37:57;98788.31;;;3.18;80.06
57847;BME280;43675;50.030;21.952;2023-01-08T07:40:24;98783.73;;;3.19;80.34
57847;BME280;43675;50.030;21.952;2023-01-08T07:43:02;98787.09;;;3.21;80.13
57847;BME280;43675;50.030;21.952;2023-01-08T07:45:30;98788.51;;;3.24;79.85
57847;BME280;43675;50.030;21.952;2023-01-08T07:47:58;98784.16;;;3.35;79.92
57847;BME280;43675;50.030;21.952;2023-01-08T07:50:26;98778.04;;;3.36;79.77
57847;BME280;43675;50.030;21.952;2023-01-08T07:52:56;98769.55;;;3.36;79.62
57847;BME280;43675;50.030;21.952;2023-01-08T07:55:23;98770.87;;;3.37;79.48
57847;BME280;43675;50.030;21.952;2023-01-08T07:57:49;98765.71;;;3.39;79.39
57847;BME280;43675;50.030;21.952;2023-01-08T08:00:16;98763.34;;;3.38;79.33
57847;BME280;43675;50.030;21.952;2023-01-08T08:02:43;98762.61;;;3.40;79.25
57847;BME280;43675;50.030;21.952;2023-01-08T08:05:10;98760.15;;;3.41;79.11
57847;BME280;43675;50.030;21.952;2023-01-08T08:07:36;98755.02;;;3.41;79.04
57847;BME280;43675;50.030;21.952;2023-01-08T08:10:03;98752.46;;;3.44;78.76
57847;BME280;43675;50.030;21.952;2023-01-08T08:12:30;98753.05;;;3.46;79.10
57847;BME280;43675;50.030;21.952;2023-01-08T08:14:57;98746.14;;;3.49;78.87
57847;BME280;43675;50.030;21.952;2023-01-08T08:17:24;98743.13;;;3.53;78.77
57847;BME280;43675;50.030;21.952;2023-01-08T08:19:51;98736.80;;;3.57;78.80
57847;BME280;43675;50.030;21.952;2023-01-08T08:22:17;98732.11;;;3.59;78.58
57847;BME280;43675;50.030;21.952;2023-01-08T08:24:44;98733.05;;;3.62;78.26
57847;BME280;43675;50.030;21.952;2023-01-08T08:27:11;98727.30;;;3.65;78.50
57847;BME280;43675;50.030;21.952;2023-01-08T08:29:37;98730.99;;;3.66;78.40
57847;BME280;43675;50.030;21.952;2023-01-08T08:32:04;98734.91;;;3.69;78.50
57847;BME280;43675;50.030;21.952;2023-01-08T08:34:32;98736.12;;;3.74;78.07
57847;BME280;43675;50.030;21.952;2023-01-08T08:36:58;98735.73;;;3.80;78.33
57847;BME280;43675;50.030;21.952;2023-01-08T08:39:25;98730.02;;;3.86;78.20
57847;BME280;43675;50.030;21.952;2023-01-08T08:41:52;98724.98;;;3.91;77.92
57847;BME280;43675;50.030;21.952;2023-01-08T08:44:18;98722.10;;;3.98;77.95
57847;BME280;43675;50.030;21.952;2023-01-08T08:46:45;98716.40;;;4.06;77.83
57847;BME280;43675;50.030;21.952;2023-01-08T08:49:11;98715.96;;;4.15;77.84
57847;BME280;43675;50.030;21.952;2023-01-08T08:51:38;98710.66;;;4.25;77.61
57847;BME280;43675;50.030;21.952;2023-01-08T08:54:04;98709.86;;;4.36;77.41
57847;BME280;43675;50.030;21.952;2023-01-08T08:56:31;98707.98;;;4.44;77.14
57847;BME280;43675;50.030;21.952;2023-01-08T08:58:57;98707.98;;;4.52;77.17
57847;BME280;43675;50.030;21.952;2023-01-08T09:01:24;98702.45;;;4.61;76.79
57847;BME280;43675;50.030;21.952;2023-01-08T09:03:51;98698.32;;;4.69;77.01
57847;BME280;43675;50.030;21.952;2023-01-08T09:06:17;98692.96;;;4.74;76.62
57847;BME280;43675;50.030;21.952;2023-01-08T09:08:44;98687.11;;;4.81;76.41
57847;BME280;43675;50.030;21.952;2023-01-08T09:11:10;98685.06;;;4.88;76.28
57847;BME280;43675;50.030;21.952;2023-01-08T09:13:37;98680.91;;;4.96;76.24
57847;BME280;43675;50.030;21.952;2023-01-08T09:16:04;98685.71;;;5.06;76.07
57847;BME280;43675;50.030;21.952;2023-01-08T09:18:30;98684.16;;;5.16;75.87
57847;BME280;43675;50.030;21.952;2023-01-08T09:20:57;98684.55;;;5.28;75.89
57847;BME280;43675;50.030;21.952;2023-01-08T09:23:24;98678.67;;;5.39;75.67
57847;BME280;43675;50.030;21.952;2023-01-08T09:25:57;98671.17;;;5.49;75.47
57847;BME280;43675;50.030;21.952;2023-01-08T09:28:24;98666.52;;;5.58;75.33
57847;BME280;43675;50.030;21.952;2023-01-08T09:30:51;98659.83;;;5.80;75.09
57847;BME280;43675;50.030;21.952;2023-01-08T09:33:18;98646.77;;;6.03;74.73
57847;BME280;43675;50.030;21.952;2023-01-08T09:35:44;98643.66;;;6.16;74.21
57847;BME280;43675;50.030;21.952;2023-01-08T09:38:11;98642.25;;;6.12;74.32
57847;BME280;43675;50.030;21.952;2023-01-08T09:40:46;98638.77;;;6.07;74.40
57847;BME280;43675;50.030;21.952;2023-01-08T09:43:19;98632.90;;;6.07;74.55
57847;BME280;43675;50.030;21.952;2023-01-08T09:45:50;98628.81;;;6.11;74.22
57847;BME280;43675;50.030;21.952;2023-01-08T09:48:20;98628.11;;;6.16;74.21
57847;BME280;43675;50.030;21.952;2023-01-08T09:50:49;98621.08;;;6.19;74.25
57847;BME280;43675;50.030;21.952;2023-01-08T09:53:17;98618.59;;;6.25;73.95
57847;BME280;43675;50.030;21.952;2023-01-08T09:55:51;98616.58;;;6.29;73.86
57847;BME280;43675;50.030;21.952;2023-01-08T09:58:24;98614.56;;;6.32;73.58
57847;BME280;43675;50.030;21.952;2023-01-08T10:00:53;98606.20;;;6.36;73.43
57847;BME280;43675;50.030;21.952;2023-01-08T10:03:24;98603.86;;;6.37;73.47
57847;BME280;43675;50.030;21.952;2023-01-08T10:05:53;98601.18;;;6.38;73.22
57847;BME280;43675;50.030;21.952;2023-01-08T10:08:20;98592.58;;;6.39;73.33
57847;BME280;43675;50.030;21.952;2023-01-08T10:10:47;98588.94;;;6.39;73.14
57847;BME280;43675;50.030;21.952;2023-01-08T10:13:14;98588.80;;;6.42;73.25
57847;BME280;43675;50.030;21.952;2023-01-08T10:15:41;98581.67;;;6.47;73.05
57847;BME280;43675;50.030;21.952;2023-01-08T10:18:12;98578.08;;;6.54;73.11
57847;BME280;43675;50.030;21.952;2023-01-08T10:20:39;98575.14;;;6.60;72.99
57847;BME280;43675;50.030;21.952;2023-01-08T10:23:14;98573.55;;;6.65;73.05
57847;BME280;43675;50.030;21.952;2023-01-08T10:25:48;98567.52;;;6.71;72.95
57847;BME280;43675;50.030;21.952;2023-01-08T10:28:29;98563.63;;;6.77;72.87
57847;BME280;43675;50.030;21.952;2023-01-08T10:31:05;98563.15;;;6.83;72.67
57847;BME280;43675;50.030;21.952;2023-01-08T10:33:45;98560.91;;;6.96;72.30
57847;BME280;43675;50.030;21.952;2023-01-08T10:36:15;98556.45;;;6.94;72.16
57847;BME280;43675;50.030;21.952;2023-01-08T10:38:56;98554.78;;;6.89;72.07
57847;BME280;43675;50.030;21.952;2023-01-08T10:41:25;98554.66;;;6.84;72.09
57847;BME280;43675;50.030;21.952;2023-01-08T10:43:59;98547.95;;;6.81;71.95
57847;BME280;43675;50.030;21.952;2023-01-08T10:46:35;98542.02;;;6.77;71.98
57847;BME280;43675;50.030;21.952;2023-01-08T10:51:50;98536.88;;;6.72;72.10
57847;BME280;43675;50.030;21.952;2023-01-08T10:54:37;98535.89;;;6.70;71.85
57847;BME280;43675;50.030;21.952;2023-01-08T10:57:38;98538.83;;;6.63;72.09
57847;BME280;43675;50.030;21.952;2023-01-08T11:00:21;98538.16;;;6.63;72.10
57847;BME280;43675;50.030;21.952;2023-01-08T11:02:48;98535.15;;;6.61;72.10
57847;BME280;43675;50.030;21.952;2023-01-08T11:05:15;98533.92;;;6.61;72.04
57847;BME280;43675;50.030;21.952;2023-01-08T11:07:42;98535.88;;;6.58;71.91
57847;BME280;43675;50.030;21.952;2023-01-08T11:10:23;98533.60;;;6.54;72.04
57847;BME280;43675;50.030;21.952;2023-01-08T11:13:02;98527.03;;;6.51;72.03
57847;BME280;43675;50.030;21.952;2023-01-08T11:15:37;98520.10;;;6.66;71.95
57847;BME280;43675;50.030;21.952;2023-01-08T11:18:24;98517.77;;;6.69;71.69
57847;BME280;43675;50.030;21.952;2023-01-08T11:20:52;98514.40;;;6.61;71.90
57847;BME280;43675;50.030;21.952;2023-01-08T11:23:23;98508.88;;;6.58;71.92
57847;BME280;43675;50.030;21.952;2023-01-08T11:29:05;98498.06;;;6.65;72.02
57847;BME280;43675;50.030;21.952;2023-01-08T11:31:58;98495.84;;;6.64;71.92
57847;BME280;43675;50.030;21.952;2023-01-08T11:37:20;98488.42;;;6.72;71.83
57847;BME280;43675;50.030;21.952;2023-01-08T11:39:48;98487.95;;;6.73;71.82
57847;BME280;43675;50.030;21.952;2023-01-08T11:47:58;98476.92;;;6.75;71.85
57847;BME280;43675;50.030;21.952;2023-01-08T11:59:16;98457.52;;;6.83;71.77
57847;BME280;43675;50.030;21.952;2023-01-08T12:02:19;98451.80;;;6.83;71.84
57847;BME280;43675;50.030;21.952;2023-01-08T12:24:07;98405.59;;;6.93;71.82
57847;BME280;43675;50.030;21.952;2023-01-08T12:32:31;98391.02;;;7.01;71.60
57847;BME280;43675;50.030;21.952;2023-01-08T12:35:13;98391.09;;;7.00;71.58
57847;BME280;43675;50.030;21.952;2023-01-08T12:37:43;98385.52;;;7.03;71.59
57847;BME280;43675;50.030;21.952;2023-01-08T12:42:43;98379.35;;;7.04;71.47
57847;BME280;43675;50.030;21.952;2023-01-08T12:45:29;98374.34;;;7.01;71.56
57847;BME280;43675;50.030;21.952;2023-01-08T12:48:10;98369.72;;;6.96;71.58
57847;BME280;43675;50.030;21.952;2023-01-08T12:59:29;98363.48;;;7.14;71.54
57847;BME280;43675;50.030;21.952;2023-01-08T13:04:50;98353.20;;;7.26;71.42
57847;BME280;43675;50.030;21.952;2023-01-08T13:07:25;98353.18;;;7.31;71.41
57847;BME280;43675;50.030;21.952;2023-01-08T13:09:55;98350.30;;;7.34;71.23
57847;BME280;43675;50.030;21.952;2023-01-08T13:12:33;98346.05;;;7.35;71.22
57847;BME280;43675;50.030;21.952;2023-01-08T13:15:02;98346.69;;;7.35;71.30
57847;BME280;43675;50.030;21.952;2023-01-08T13:17:29;98337.95;;;7.33;71.18
57847;BME280;43675;50.030;21.952;2023-01-08T13:20:00;98337.23;;;7.32;71.22
57847;BME280;43675;50.030;21.952;2023-01-08T13:22:29;98338.10;;;7.30;71.26
57847;BME280;43675;50.030;21.952;2023-01-08T13:25:08;98340.12;;;7.29;71.36
57847;BME280;43675;50.030;21.952;2023-01-08T13:27:36;98341.02;;;7.29;71.35
57847;BME280;43675;50.030;21.952;2023-01-08T13:30:28;98338.50;;;7.28;71.30
57847;BME280;43675;50.030;21.952;2023-01-08T13:32:49;98343.36;;;7.28;71.32
57847;BME280;43675;50.030;21.952;2023-01-08T13:35:19;98339.16;;;7.30;71.18
57847;BME280;43675;50.030;21.952;2023-01-08T13:37:51;98336.94;;;7.28;71.17
57847;BME280;43675;50.030;21.952;2023-01-08T13:43:04;98339.57;;;7.28;71.01
57847;BME280;43675;50.030;21.952;2023-01-08T13:45:32;98339.90;;;7.27;70.78
57847;BME280;43675;50.030;21.952;2023-01-08T13:47:59;98339.34;;;7.26;70.71
57847;BME280;43675;50.030;21.952;2023-01-08T13:50:26;98340.48;;;7.25;70.60
57847;BME280;43675;50.030;21.952;2023-01-08T13:52:57;98339.97;;;7.24;70.55
57847;BME280;43675;50.030;21.952;2023-01-08T13:55:36;98339.41;;;7.21;70.49
57847;BME280;43675;50.030;21.952;2023-01-08T13:58:32;98342.21;;;7.20;70.51
57847;BME280;43675;50.030;21.952;2023-01-08T14:01:02;98345.17;;;7.21;70.52
57847;BME280;43675;50.030;21.952;2023-01-08T14:03:36;98346.39;;;7.24;70.43
57847;BME280;43675;50.030;21.952;2023-01-08T14:08:35;98351.45;;;7.44;70.25
57847;BME280;43675;50.030;21.952;2023-01-08T14:11:02;98344.98;;;7.63;69.66
57847;BME280;43675;50.030;21.952;2023-01-08T14:13:30;98343.31;;;7.77;69.54
57847;BME280;43675;50.030;21.952;2023-01-08T14:16:01;98343.68;;;7.85;69.35
57847;BME280;43675;50.030;21.952;2023-01-08T14:18:29;98344.30;;;7.79;69.38
57847;BME280;43675;50.030;21.952;2023-01-08T14:20:56;98346.52;;;7.73;69.52
57847;BME280;43675;50.030;21.952;2023-01-08T14:23:26;98343.21;;;7.67;69.58
57847;BME280;43675;50.030;21.952;2023-01-08T14:25:53;98336.80;;;7.63;69.66
57847;BME280;43675;50.030;21.952;2023-01-08T14:28:21;98339.30;;;7.60;69.70
57847;BME280;43675;50.030;21.952;2023-01-08T14:30:53;98334.41;;;7.54;69.74
57847;BME280;43675;50.030;21.952;2023-01-08T14:33:27;98334.61;;;7.50;69.96
57847;BME280;43675;50.030;21.952;2023-01-08T14:35:56;98329.31;;;7.54;69.89
57847;BME280;43675;50.030;21.952;2023-01-08T14:38:23;98329.55;;;7.48;69.82
57847;BME280;43675;50.030;21.952;2023-01-08T14:41:02;98321.24;;;7.42;69.93